KOWD/OWD METAR and TAF weather

Enter ICAO airport designator
Station Type Date Time Source
KOWD METAR 2022/05/26 03:53 UTC NOAA

KOWD 260353Z AUTO 18004KT 10SM FEW065 11/05 A3037 RMK AO2 SLP283 T01060050


Station Type Date Time Source
KOWD Decoded METAR 2022/05/26 03:53 UTC NOAA

NORWOOD MEMORIAL AIRPORT, MA, United States (KOWD) 42-11N 71-10W 19M
May 25, 2022 - 11:53 PM EDT / 2022.05.26 0353 UTC
Wind: from the S (180 degrees) at 5 MPH (4 KT):0
Visibility: 10 mile(s):0
Sky conditions: mostly clear
Temperature: 51.1 F (10.6 C)
Dew Point: 41.0 F (5.0 C)
Relative Humidity: 68%
Pressure (altimeter): 30.37 in. Hg (1028 hPa)
ob: KOWD 260353Z AUTO 18004KT 10SM FEW065 11/05 A3037 RMK AO2 SLP283 T01060050
cycle: 4

Station Type Date Time Source
KOWD TAF UTC NOAA

Error!

Example: see airport list